Time;durP1;ratioP1;P1;durP2;ratioP2;P2;SDS_P1;SDS_P2;PMS_P1;PMS_P2;Temp;Humidity;BMP_temperature;BMP_pressure;BME280_temperature;BME280_humidity;BME280_pressure;Samples;Min_cycle;Max_cycle;Signal;HPM_P1;HPM_P2
2022/12/17 13:06:03;;;;;;;73.22;35.45;;;0.20;99.90;;;;;;5072745;28;20039;-35
2022/12/17 13:08:29;;;;;;;65.35;31.83;;;0.10;99.90;;;;;;5073361;28;20041;-36
2022/12/17 13:10:55;;;;;;;65.60;30.52;;;0.10;99.90;;;;;;5073615;28;20042;-35
2022/12/17 13:13:28;;;;;;;63.97;31.33;;;0.10;99.90;;;;;;5072463;28;20532;-35
2022/12/17 13:16:03;;;;;;;70.10;32.83;;;0.10;99.90;;;;;;5084522;28;20040;-35
2022/12/17 13:18:32;;;;;;;64.43;31.58;;;0.10;99.90;;;;;;5072236;28;20047;-35
2022/12/17 13:21:05;;;;;;;61.53;29.63;;;0.10;99.90;;;;;;5073470;28;20044;-35
2022/12/17 13:23:34;;;;;;;69.53;31.02;;;0.00;99.90;;;;;;5073779;28;20036;-36
2022/12/17 13:26:29;;;;;;;67.53;32.22;;;0.00;99.90;;;;;;5073038;28;20024;-35
2022/12/17 13:28:54;;;;;;;62.90;31.17;;;0.10;99.90;;;;;;5068282;28;20075;-35
2022/12/17 13:31:29;;;;;;;64.70;30.65;;;0.10;99.90;;;;;;5051780;28;20498;-34
2022/12/17 13:34:17;;;;;;;65.75;30.95;;;0.00;99.90;;;;;;5070668;28;20075;-36
2022/12/17 13:37:00;;;;;;;71.65;31.55;;;0.00;99.90;;;;;;5072731;28;20036;-36
2022/12/17 13:39:50;;;;;;;68.10;30.92;;;-0.10;99.90;;;;;;5064560;28;20125;-34
2022/12/17 13:42:28;;;;;;;65.35;31.40;;;-0.10;99.90;;;;;;5072187;28;20595;-37
2022/12/17 13:44:56;;;;;;;59.85;26.70;;;-0.10;99.90;;;;;;5069964;28;20036;-36
2022/12/17 13:47:29;;;;;;;67.22;30.92;;;-0.10;99.90;;;;;;5074419;28;20089;-35
2022/12/17 13:49:57;;;;;;;64.30;29.63;;;-0.10;99.90;;;;;;5073927;28;20413;-35
2022/12/17 13:52:25;;;;;;;74.05;31.75;;;-0.20;99.90;;;;;;5074882;28;20513;-36
2022/12/17 13:54:52;;;;;;;70.80;31.42;;;-0.20;99.90;;;;;;5072840;28;20032;-34
2022/12/17 13:57:25;;;;;;;62.15;29.95;;;-0.20;99.90;;;;;;5073168;28;20028;-36
2022/12/17 13:59:58;;;;;;;69.07;32.05;;;-0.20;99.90;;;;;;5084508;28;20040;-35
2022/12/17 14:02:31;;;;;;;;;;;-0.30;99.90;;;;;;5071685;28;20043;-36
2022/12/17 14:05:01;;;;;;;64.88;29.98;;;-0.40;99.90;;;;;;5069832;28;19963;-35
2022/12/17 14:07:28;;;;;;;69.68;30.77;;;-0.40;99.90;;;;;;5070578;28;20093;-36
2022/12/17 14:09:55;;;;;;;69.88;31.63;;;-0.40;99.90;;;;;;5070709;28;20056;-36
2022/12/17 14:12:25;;;;;;;65.97;30.00;;;-0.50;99.90;;;;;;5068576;28;20033;-36
2022/12/17 14:14:57;;;;;;;63.53;27.85;;;-0.50;99.90;;;;;;5067694;28;20398;-36
2022/12/17 14:17:24;;;;;;;73.70;29.10;;;-0.50;99.90;;;;;;5071230;28;20044;-35
2022/12/17 14:20:04;;;;;;;64.30;28.92;;;-0.50;99.90;;;;;;5071938;28;20094;-35
2022/12/17 14:22:40;;;;;;;60.75;28.55;;;-0.60;99.90;;;;;;5087878;28;20036;-36
2022/12/17 14:25:15;;;;;;;65.97;28.15;;;-0.70;99.90;;;;;;5072083;28;20056;-34
2022/12/17 14:27:51;;;;;;;65.03;27.00;;;-0.80;99.90;;;;;;5071652;28;20079;-36
2022/12/17 14:30:24;;;;;;;67.68;29.00;;;-0.90;99.90;;;;;;5071396;28;20482;-36
2022/12/17 14:32:50;;;;;;;68.90;30.52;;;-0.90;99.90;;;;;;5069029;28;20368;-36
2022/12/17 14:35:29;;;;;;;71.32;31.10;;;-0.90;99.90;;;;;;5069571;28;20063;-35
2022/12/17 14:37:55;;;;;;;65.30;28.73;;;-1.00;99.90;;;;;;5071811;28;20062;-36
2022/12/17 14:40:23;;;;;;;60.90;26.73;;;-1.00;99.90;;;;;;5072123;28;20054;-36
2022/12/17 14:42:50;;;;;;;63.80;28.67;;;-1.00;99.90;;;;;;5073074;28;20048;-36
2022/12/17 14:45:16;;;;;;;68.82;29.30;;;-1.00;99.90;;;;;;5061763;28;20037;-36
2022/12/17 14:47:59;;;;;;;74.07;31.20;;;-1.00;99.90;;;;;;5073316;28;20519;-36
2022/12/17 14:50:36;;;;;;;71.70;30.25;;;-1.00;99.90;;;;;;5085201;28;20497;-36
2022/12/17 14:53:22;;;;;;;74.63;31.25;;;-1.00;99.90;;;;;;5073714;28;20560;-35
2022/12/17 14:55:53;;;;;;;65.38;26.73;;;-0.90;99.90;;;;;;5073336;28;20064;-36
2022/12/17 14:58:21;;;;;;;60.97;26.15;;;-0.90;99.90;;;;;;5062297;28;20044;-36
2022/12/17 15:01:06;;;;;;;69.82;28.35;;;-1.00;99.90;;;;;;5072964;28;20041;-35
2022/12/17 15:03:38;;;;;;;69.88;29.15;;;-1.10;99.90;;;;;;5073764;28;20040;-35
2022/12/17 15:06:07;;;;;;;66.80;29.27;;;-1.10;99.90;;;;;;5071515;28;20119;-36
2022/12/17 15:08:39;;;;;;;68.70;28.23;;;-1.10;99.90;;;;;;5071367;28;20128;-35
2022/12/17 15:11:05;;;;;;;73.60;29.20;;;-1.10;99.90;;;;;;5071689;28;20036;-36
2022/12/17 15:13:31;;;;;;;73.03;28.38;;;-1.20;99.90;;;;;;5071224;28;20182;-35
2022/12/17 15:15:58;;;;;;;70.82;28.40;;;-1.20;99.90;;;;;;5072698;28;20119;-35
2022/12/17 15:18:24;;;;;;;74.00;29.92;;;-1.20;99.90;;;;;;5069895;28;20120;-35
2022/12/17 15:20:49;;;;;;;78.10;28.48;;;-1.30;99.90;;;;;;5065682;28;20041;-36
2022/12/17 15:23:21;;;;;;;71.38;27.50;;;-1.30;99.90;;;;;;5084561;28;20044;-36
2022/12/17 15:25:49;;;;;;;67.53;28.25;;;-1.30;99.90;;;;;;5069262;28;20041;-35
2022/12/17 15:28:16;;;;;;;66.85;29.13;;;-1.30;99.90;;;;;;5072424;28;20036;-35
2022/12/17 15:30:41;;;;;;;76.68;29.92;;;-1.40;99.90;;;;;;5071056;28;20032;-35
2022/12/17 15:33:11;;;;;;;68.40;26.75;;;-1.40;99.90;;;;;;5071262;28;20047;-36
2022/12/17 15:35:38;;;;;;;71.93;28.08;;;-1.40;99.90;;;;;;5071023;28;20044;-36
2022/12/17 15:38:05;;;;;;;76.18;27.88;;;-1.40;99.90;;;;;;5071149;28;20025;-35
2022/12/17 15:40:31;;;;;;;78.22;28.88;;;-1.50;99.90;;;;;;5071156;28;20363;-36
2022/12/17 15:43:12;;;;;;;78.40;28.33;;;-1.50;99.90;;;;;;5071257;28;20037;-36
2022/12/17 15:45:42;;;;;;;72.28;29.30;;;-1.50;99.90;;;;;;5071886;28;20451;-36
2022/12/17 15:48:09;;;;;;;72.00;27.90;;;-1.50;99.90;;;;;;5051546;28;20033;-36
2022/12/17 15:50:36;;;;;;;72.82;28.23;;;-1.50;99.90;;;;;;5072411;28;20045;-36
2022/12/17 15:53:02;;;;;;;76.10;29.20;;;-1.50;99.90;;;;;;5067824;28;20037;-35
2022/12/17 15:55:28;;;;;;;81.90;31.02;;;-1.50;99.90;;;;;;5076130;28;20609;-35
2022/12/17 15:57:54;;;;;;;73.75;30.30;;;-1.50;99.90;;;;;;5074901;28;20094;-35
2022/12/17 16:00:20;;;;;;;77.70;30.52;;;-1.50;99.90;;;;;;5074903;28;20485;-35
2022/12/17 16:02:47;;;;;;;76.65;30.50;;;-1.50;99.90;;;;;;5075477;28;20076;-35
2022/12/17 16:05:14;;;;;;;78.10;31.27;;;-1.50;99.90;;;;;;5075108;28;20028;-35
2022/12/17 16:07:42;;;;;;;81.13;30.02;;;-1.50;99.90;;;;;;5085387;28;20036;-34
2022/12/17 16:10:09;;;;;;;77.07;30.75;;;-1.50;99.90;;;;;;5073173;28;20035;-36
2022/12/17 16:12:35;;;;;;;75.65;30.48;;;-1.50;99.90;;;;;;5075100;28;20039;-35
2022/12/17 16:15:03;;;;;;;89.30;33.38;;;-1.50;99.90;;;;;;5074939;28;20173;-35
2022/12/17 16:17:28;;;;;;;81.25;32.40;;;-1.50;99.90;;;;;;5076952;28;20445;-35
2022/12/17 16:19:55;;;;;;;76.72;31.40;;;-1.50;99.90;;;;;;5074715;28;20044;-34
2022/12/17 16:22:21;;;;;;;85.22;35.78;;;-1.50;99.90;;;;;;5074545;28;20036;-36
2022/12/17 16:24:46;;;;;;;80.10;31.27;;;-1.50;99.90;;;;;;5080003;28;20044;-34
2022/12/17 16:27:13;;;;;;;74.25;32.92;;;-1.50;99.90;;;;;;5058059;28;20039;-36
2022/12/17 16:29:39;;;;;;;77.15;32.25;;;-1.50;99.90;;;;;;5074194;28;20040;-35
2022/12/17 16:32:07;;;;;;;73.43;30.80;;;-1.50;99.90;;;;;;5071291;28;20166;-35
2022/12/17 16:34:35;;;;;;;82.95;33.10;;;-1.50;99.90;;;;;;5073698;28;20398;-34
2022/12/17 16:37:01;;;;;;;80.93;32.42;;;-1.50;99.90;;;;;;5074841;28;20393;-36
2022/12/17 16:39:27;;;;;;;75.75;31.73;;;-1.50;99.90;;;;;;5074716;28;20036;-35
2022/12/17 16:41:53;;;;;;;80.28;34.75;;;-1.50;99.90;;;;;;5072582;28;20048;-35
2022/12/17 16:44:20;;;;;;;72.20;32.25;;;-1.50;99.90;;;;;;5071327;28;20056;-36
2022/12/17 16:46:46;;;;;;;76.78;34.97;;;-1.50;99.90;;;;;;5070390;28;20040;-36
2022/12/17 16:49:15;;;;;;;80.30;36.20;;;-1.60;99.90;;;;;;5073554;28;20037;-35
2022/12/17 16:51:42;;;;;;;83.75;33.75;;;-1.60;99.90;;;;;;5072750;28;20086;-36
2022/12/17 16:54:13;;;;;;;76.85;34.25;;;-1.50;99.90;;;;;;5073917;28;20047;-35
2022/12/17 16:56:40;;;;;;;77.15;35.50;;;-1.60;99.90;;;;;;5074126;28;20258;-35
2022/12/17 16:59:07;;;;;;;79.10;36.22;;;-1.60;99.90;;;;;;5072458;28;20047;-34
2022/12/17 17:01:34;;;;;;;81.85;35.78;;;-1.60;99.90;;;;;;5071435;28;20036;-35
2022/12/17 17:04:00;;;;;;;78.10;35.90;;;-1.60;99.90;;;;;;5074203;28;20171;-36
2022/12/17 17:06:27;;;;;;;79.82;35.75;;;-1.60;99.90;;;;;;5070983;28;20115;-34
2022/12/17 17:08:53;;;;;;;71.50;32.10;;;-1.60;99.90;;;;;;5087566;28;20044;-34
2022/12/17 17:11:22;;;;;;;84.93;38.20;;;-1.60;99.90;;;;;;5069781;28;20037;-35
2022/12/17 17:13:53;;;;;;;88.35;38.90;;;-1.60;99.90;;;;;;5071862;28;20032;-35
2022/12/17 17:16:22;;;;;;;92.10;43.33;;;-1.60;99.90;;;;;;5071781;28;20044;-36
2022/12/17 17:18:49;;;;;;;84.35;41.90;;;-1.70;99.90;;;;;;5085478;28;20047;-34
2022/12/17 17:21:18;;;;;;;87.03;39.50;;;-1.70;99.90;;;;;;5071199;28;20043;-36
2022/12/17 17:23:53;;;;;;;83.65;39.40;;;-1.70;99.90;;;;;;5068953;28;20106;-34
2022/12/17 17:26:20;;;;;;;82.82;41.70;;;-1.70;99.90;;;;;;5071876;28;20099;-35
2022/12/17 17:28:46;;;;;;;85.53;37.25;;;-1.70;99.90;;;;;;5071063;28;20040;-35
2022/12/17 17:31:14;;;;;;;86.72;39.97;;;-1.70;99.90;;;;;;5071439;28;20033;-35
2022/12/17 17:33:43;;;;;;;85.40;39.25;;;-1.70;99.90;;;;;;5069713;28;20359;-35
2022/12/17 17:36:12;;;;;;;88.53;41.83;;;-1.70;99.90;;;;;;5073940;28;20413;-35
2022/12/17 17:38:41;;;;;;;87.75;40.38;;;-1.70;99.90;;;;;;5074117;28;20044;-35
2022/12/17 17:41:11;;;;;;;95.07;40.92;;;-1.80;99.90;;;;;;5073846;28;20044;-35
2022/12/17 17:43:38;;;;;;;88.75;40.47;;;-1.80;99.90;;;;;;5059876;28;20505;-36
2022/12/17 17:46:23;;;;;;;84.18;39.30;;;-1.80;99.90;;;;;;5073747;28;20040;-34
2022/12/17 17:48:49;;;;;;;89.75;39.53;;;-1.80;99.90;;;;;;5070207;28;20033;-36
2022/12/17 17:51:24;;;;;;;91.70;42.30;;;-1.80;99.90;;;;;;5071684;28;20114;-35
2022/12/17 17:53:51;;;;;;;84.82;39.35;;;-1.80;99.90;;;;;;5070626;28;20077;-35
2022/12/17 17:56:29;;;;;;;98.22;44.72;;;-1.80;99.90;;;;;;5072557;28;20036;-35
2022/12/17 17:59:01;;;;;;;77.88;36.63;;;-1.80;99.90;;;;;;5070122;28;20033;-36
2022/12/17 18:01:33;;;;;;;81.38;38.97;;;-1.90;99.90;;;;;;5070921;28;20032;-36
2022/12/17 18:04:04;;;;;;;80.75;36.53;;;-1.90;99.90;;;;;;5070921;28;20036;-36
2022/12/17 18:06:31;;;;;;;86.72;39.75;;;-1.90;99.90;;;;;;5053806;28;20545;-35
2022/12/17 18:08:58;;;;;;;82.43;39.05;;;-2.00;99.90;;;;;;5070122;28;20021;-35
2022/12/17 18:11:27;;;;;;;84.80;39.65;;;-2.00;99.90;;;;;;5071633;28;20047;-34
2022/12/17 18:13:54;;;;;;;86.45;38.78;;;-2.00;99.90;;;;;;5074114;28;20044;-36
2022/12/17 18:16:21;;;;;;;87.10;40.45;;;-2.00;99.90;;;;;;5065993;28;20040;-34
2022/12/17 18:18:47;;;;;;;86.50;38.65;;;-2.10;99.90;;;;;;5070116;28;20120;-35
2022/12/17 18:21:18;;;;;;;82.45;39.72;;;-2.00;99.90;;;;;;5069983;28;20432;-35
2022/12/17 18:23:44;;;;;;;80.45;35.45;;;-2.00;99.90;;;;;;5066376;28;20040;-34
2022/12/17 18:26:12;;;;;;;79.38;35.22;;;-2.00;99.90;;;;;;5069429;28;20072;-34
2022/12/17 18:28:39;;;;;;;88.93;39.80;;;-2.00;99.90;;;;;;5070282;28;20040;-33
2022/12/17 18:31:06;;;;;;;90.07;41.35;;;-2.00;99.90;;;;;;5070432;28;20112;-35
2022/12/17 18:33:33;;;;;;;85.47;38.35;;;-2.10;99.90;;;;;;5070374;28;20036;-35
2022/12/17 18:35:58;;;;;;;86.70;40.67;;;-2.00;99.90;;;;;;5069267;28;20044;-35
2022/12/17 18:38:24;;;;;;;94.78;38.20;;;-2.10;99.90;;;;;;5070185;28;20036;-36
2022/12/17 18:40:50;;;;;;;89.90;39.80;;;-2.00;99.90;;;;;;5070113;28;20158;-35
2022/12/17 18:43:24;;;;;;;90.18;38.67;;;-2.00;99.90;;;;;;5069952;28;20064;-35
2022/12/17 18:45:51;;;;;;;95.75;44.20;;;-2.00;99.90;;;;;;5071417;28;20444;-36
2022/12/17 18:48:18;;;;;;;96.50;42.38;;;-2.00;99.90;;;;;;5068687;28;20509;-34
2022/12/17 18:50:44;;;;;;;95.45;41.65;;;-2.00;99.90;;;;;;5070881;28;20040;-35
2022/12/17 18:53:09;;;;;;;91.97;44.95;;;-2.00;99.90;;;;;;5070251;28;20044;-36
2022/12/17 18:55:39;;;;;;;91.95;41.75;;;-2.00;99.90;;;;;;5070127;28;20086;-35
2022/12/17 18:58:07;;;;;;;99.90;44.15;;;-2.00;99.90;;;;;;5070706;28;20037;-35
2022/12/17 19:00:34;;;;;;;94.82;41.22;;;-2.00;99.90;;;;;;5070875;28;20408;-35
2022/12/17 19:02:59;;;;;;;93.13;42.58;;;-1.90;99.90;;;;;;5085685;28;20472;-36
2022/12/17 19:05:25;;;;;;;96.85;41.08;;;-1.90;99.90;;;;;;5071756;28;20071;-34
2022/12/17 19:07:51;;;;;;;95.53;41.75;;;-1.90;99.90;;;;;;5071861;28;20028;-35
2022/12/17 19:10:16;;;;;;;98.85;41.92;;;-1.90;99.90;;;;;;5072823;28;20037;-36
2022/12/17 19:12:42;;;;;;;100.55;45.05;;;-1.90;99.90;;;;;;5072280;28;20033;-35
2022/12/17 19:15:08;;;;;;;91.50;40.47;;;-1.90;99.90;;;;;;5020803;28;20060;-36
2022/12/17 19:17:34;;;;;;;96.53;41.22;;;-2.00;99.90;;;;;;5041096;28;20048;-34
2022/12/17 19:20:00;;;;;;;94.35;42.00;;;-2.00;99.90;;;;;;5042310;28;20045;-36
2022/12/17 19:22:26;;;;;;;93.30;42.00;;;-2.10;99.90;;;;;;5034686;28;20044;-35
2022/12/17 19:24:51;;;;;;;89.32;37.60;;;-2.10;99.90;;;;;;5034425;28;20037;-35
2022/12/17 19:27:17;;;;;;;87.00;38.25;;;-2.10;99.90;;;;;;5054940;28;20494;-34
2022/12/17 19:29:43;;;;;;;88.15;37.17;;;-2.20;99.90;;;;;;5055810;28;20083;-35
2022/12/17 19:32:09;;;;;;;99.57;41.85;;;-2.20;99.90;;;;;;5038222;28;20082;-35
2022/12/17 19:34:34;;;;;;;94.90;41.65;;;-2.20;99.90;;;;;;5037529;28;20387;-35
2022/12/17 19:37:00;;;;;;;95.82;40.80;;;-2.20;99.90;;;;;;5037364;28;20048;-34
2022/12/17 19:39:26;;;;;;;103.43;40.38;;;-2.10;99.90;;;;;;5039783;28;20043;-35
2022/12/17 19:41:51;;;;;;;98.25;41.38;;;-2.10;99.90;;;;;;5045668;28;20044;-34
2022/12/17 19:44:19;;;;;;;91.72;37.80;;;-2.10;99.90;;;;;;5018641;28;20576;-35
2022/12/17 19:46:45;;;;;;;76.22;32.60;;;-2.20;99.90;;;;;;5034954;28;20075;-35
2022/12/17 19:49:12;;;;;;;90.05;36.55;;;-2.20;99.90;;;;;;5032051;28;20025;-34
2022/12/17 19:51:39;;;;;;;93.68;40.20;;;-2.20;99.90;;;;;;5041917;28;20064;-34
2022/12/17 19:54:05;;;;;;;89.07;38.42;;;-2.30;99.90;;;;;;5038114;28;20055;-35
2022/12/17 19:56:31;;;;;;;95.72;40.25;;;-2.30;99.90;;;;;;5045606;28;20406;-34
2022/12/17 19:59:00;;;;;;;93.40;39.92;;;-2.30;99.90;;;;;;5045856;28;20125;-34
2022/12/17 20:01:35;;;;;;;94.22;36.05;;;-2.30;99.90;;;;;;5036987;28;20048;-34
2022/12/17 20:04:01;;;;;;;83.20;34.15;;;-2.30;99.90;;;;;;5033409;28;20494;-35
2022/12/17 20:06:30;;;;;;;84.93;36.42;;;-2.30;99.90;;;;;;5019107;28;20115;-34
2022/12/17 20:08:58;;;;;;;85.50;34.83;;;-2.40;99.90;;;;;;5036075;28;20420;-35
2022/12/17 20:11:33;;;;;;;91.75;34.58;;;-2.40;99.90;;;;;;5036857;28;20039;-35
2022/12/17 20:13:59;;;;;;;78.40;33.00;;;-2.40;99.90;;;;;;5052185;28;20040;-35
2022/12/17 20:16:26;;;;;;;87.50;32.95;;;-2.40;99.90;;;;;;5070377;28;20043;-35
2022/12/17 20:18:52;;;;;;;83.10;34.28;;;-2.40;99.90;;;;;;5072055;28;20047;-35
2022/12/17 20:21:18;;;;;;;85.30;34.90;;;-2.40;99.90;;;;;;5070945;28;20043;-36
2022/12/17 20:23:50;;;;;;;87.10;36.92;;;-2.50;99.90;;;;;;5066920;28;20562;-36
2022/12/17 20:26:16;;;;;;;86.63;35.33;;;-2.40;99.90;;;;;;5072062;28;20485;-35
2022/12/17 20:28:43;;;;;;;88.88;37.55;;;-2.40;99.90;;;;;;5071784;28;20033;-36
2022/12/17 20:31:10;;;;;;;88.63;36.95;;;-2.40;99.90;;;;;;5072149;28;20415;-35
2022/12/17 20:33:36;;;;;;;91.30;36.42;;;-2.40;99.90;;;;;;5072554;28;20041;-35
2022/12/17 20:36:03;;;;;;;78.55;35.30;;;-2.40;99.90;;;;;;5071412;28;20397;-35
2022/12/17 20:38:29;;;;;;;80.10;33.35;;;-2.50;99.90;;;;;;5072093;28;20040;-35
2022/12/17 20:40:55;;;;;;;84.28;36.28;;;-2.50;99.90;;;;;;5069577;28;20036;-35
2022/12/17 20:43:20;;;;;;;94.93;39.47;;;-2.50;99.90;;;;;;5073246;28;20079;-35
2022/12/17 20:45:48;;;;;;;88.10;36.53;;;-2.50;99.90;;;;;;5070734;28;20036;-34
2022/12/17 20:48:14;;;;;;;91.32;37.42;;;-2.50;99.90;;;;;;5069211;28;20116;-35
2022/12/17 20:50:42;;;;;;;92.70;37.10;;;-2.50;99.90;;;;;;5070983;28;20098;-33
2022/12/17 20:53:08;;;;;;;87.90;37.08;;;-2.50;99.90;;;;;;5071055;28;20037;-35
2022/12/17 20:55:34;;;;;;;98.40;39.42;;;-2.50;99.90;;;;;;5079363;28;20083;-35
2022/12/17 20:57:59;;;;;;;99.78;36.33;;;-2.50;99.90;;;;;;5073288;28;20051;-34
2022/12/17 21:00:25;;;;;;;101.95;39.05;;;-2.50;99.90;;;;;;5068861;28;20128;-35
2022/12/17 21:02:51;;;;;;;84.85;35.22;;;-2.50;99.90;;;;;;5074239;28;20497;-35
2022/12/17 21:05:17;;;;;;;93.45;37.15;;;-2.60;99.90;;;;;;5082109;28;20070;-35
2022/12/17 21:07:43;;;;;;;100.70;36.80;;;-2.60;99.90;;;;;;5083489;28;20490;-34
2022/12/17 21:10:10;;;;;;;82.00;34.67;;;-2.60;99.90;;;;;;5071513;28;20096;-35
2022/12/17 21:15:21;;;;;;;79.88;31.80;;;-2.70;99.90;;;;;;5073214;28;20096;-35
2022/12/17 21:17:47;;;;;;;81.90;32.83;;;-2.80;99.90;;;;;;5072379;28;20466;-35
2022/12/17 21:20:13;;;;;;;84.97;32.05;;;-2.90;99.90;;;;;;5066347;28;20116;-35
2022/12/17 21:22:40;;;;;;;86.88;31.77;;;-2.90;99.90;;;;;;5073067;28;20483;-35
2022/12/17 21:25:07;;;;;;;76.68;34.65;;;-2.90;99.90;;;;;;5069453;28;20501;-35
2022/12/17 21:27:33;;;;;;;85.95;32.53;;;-3.00;99.90;;;;;;5074173;28;20039;-34
2022/12/17 21:30:00;;;;;;;88.10;31.50;;;-3.00;99.90;;;;;;5072080;28;20063;-34
2022/12/17 21:32:26;;;;;;;99.97;36.13;;;-3.00;99.90;;;;;;5067234;28;20040;-35
2022/12/17 21:34:52;;;;;;;85.50;33.15;;;-3.10;99.90;;;;;;5072565;28;20045;-35
2022/12/17 21:37:18;;;;;;;86.10;33.97;;;-3.10;99.90;;;;;;5072666;28;20127;-35
2022/12/17 21:39:44;;;;;;;96.78;34.88;;;-3.10;99.90;;;;;;5072104;28;20124;-35
2022/12/17 21:44:54;;;;;;;;;;;-3.10;99.90;;;;;;5073661;28;20044;-35
2022/12/17 21:47:19;;;;;;;83.05;32.13;;;-3.10;99.90;;;;;;5073083;28;19916;-35
2022/12/17 21:49:45;;;;;;;86.05;30.15;;;-3.00;99.90;;;;;;5072279;28;20051;-34
2022/12/17 21:52:11;;;;;;;80.15;32.50;;;-3.10;99.90;;;;;;5071893;28;20082;-35
2022/12/17 21:54:37;;;;;;;82.30;34.80;;;-3.10;99.90;;;;;;5072251;28;20040;-34
2022/12/17 21:57:03;;;;;;;82.53;33.80;;;-3.10;99.90;;;;;;5072732;28;20495;-35
2022/12/17 21:59:28;;;;;;;97.57;36.88;;;-3.10;99.90;;;;;;5071611;28;20285;-35
2022/12/17 22:01:57;;;;;;;88.20;34.83;;;-3.10;99.90;;;;;;5072327;28;20044;-35
2022/12/17 22:04:23;;;;;;;85.38;32.88;;;-3.10;99.90;;;;;;5070837;28;20111;-35
2022/12/17 22:06:49;;;;;;;93.22;36.03;;;-3.10;99.90;;;;;;5071756;28;20497;-35
2022/12/17 22:09:15;;;;;;;94.85;35.17;;;-3.10;99.90;;;;;;5068600;28;20033;-35
2022/12/17 22:11:41;;;;;;;84.78;32.90;;;-3.10;99.90;;;;;;5071942;28;20037;-34
2022/12/17 22:14:10;;;;;;;83.25;32.80;;;-3.10;99.90;;;;;;5055097;28;20052;-35
2022/12/17 22:16:47;;;;;;;84.07;32.90;;;-3.10;99.90;;;;;;5071969;28;20040;-35
2022/12/17 22:19:21;;;;;;;78.80;29.88;;;-3.20;99.90;;;;;;5071780;28;20041;-35
2022/12/17 22:21:48;;;;;;;89.15;31.98;;;-3.20;99.90;;;;;;5066567;28;20043;-34
2022/12/17 22:24:16;;;;;;;88.55;33.40;;;-3.20;99.90;;;;;;5080968;28;20040;-34
2022/12/17 22:26:42;;;;;;;95.15;32.97;;;-3.20;99.90;;;;;;5071969;28;20259;-35
2022/12/17 22:29:08;;;;;;;87.68;32.53;;;-3.20;99.90;;;;;;5080893;28;20425;-35
2022/12/17 22:34:18;;;;;;;82.32;33.65;;;-3.30;99.90;;;;;;5070371;28;20383;-35
2022/12/17 22:36:44;;;;;;;80.63;32.00;;;-3.30;99.90;;;;;;5080878;28;20043;-35
2022/12/17 22:39:13;;;;;;;90.13;34.75;;;-3.30;99.90;;;;;;5069819;28;20523;-35
2022/12/17 22:44:25;;;;;;;86.57;32.40;;;-3.30;99.90;;;;;;5069950;28;20182;-35
2022/12/17 22:46:51;;;;;;;87.07;32.67;;;-3.30;99.90;;;;;;5066470;28;20033;-35
2022/12/17 22:49:17;;;;;;;95.25;35.13;;;-3.30;99.90;;;;;;5069598;28;20032;-35
2022/12/17 22:51:43;;;;;;;92.88;33.83;;;-3.30;99.90;;;;;;5070284;28;20036;-35
2022/12/17 22:54:11;;;;;;;96.55;34.90;;;-3.30;99.90;;;;;;5069305;28;20466;-35
2022/12/17 22:56:38;;;;;;;96.20;36.40;;;-3.30;99.90;;;;;;5068682;28;20127;-35
2022/12/17 22:59:05;;;;;;;105.40;37.67;;;-3.30;99.90;;;;;;5070837;28;20047;-35
2022/12/17 23:01:31;;;;;;;104.22;35.70;;;-3.30;99.90;;;;;;5073508;28;20422;-35
2022/12/17 23:03:59;;;;;;;93.03;34.60;;;-3.20;99.90;;;;;;5074139;28;20401;-35
2022/12/17 23:06:26;;;;;;;96.38;34.00;;;-3.30;99.90;;;;;;5069739;28;20128;-35
2022/12/17 23:08:52;;;;;;;91.50;36.35;;;-3.20;99.90;;;;;;5073866;28;20040;-35
2022/12/17 23:11:25;;;;;;;89.55;34.72;;;-3.30;99.90;;;;;;5075932;28;20032;-35
2022/12/17 23:13:52;;;;;;;95.35;36.05;;;-3.20;99.90;;;;;;5065101;28;20044;-35
2022/12/17 23:16:18;;;;;;;94.30;33.45;;;-3.30;99.90;;;;;;5083683;28;20047;-35
2022/12/17 23:18:45;;;;;;;103.10;37.75;;;-3.30;99.90;;;;;;5073409;28;20048;-35
2022/12/17 23:21:19;;;;;;;102.82;39.38;;;-3.30;99.90;;;;;;5083398;28;20043;-35
2022/12/17 23:23:45;;;;;;;91.72;34.20;;;-3.30;99.90;;;;;;5073184;28;20576;-35
2022/12/17 23:26:23;;;;;;;97.00;38.70;;;-3.30;99.90;;;;;;5072695;28;20043;-35
2022/12/17 23:29:04;;;;;;;98.68;36.97;;;-3.30;99.90;;;;;;5072598;28;20036;-35
2022/12/17 23:31:36;;;;;;;106.00;34.00;;;-3.30;99.90;;;;;;5082971;28;20101;-35
2022/12/17 23:34:03;;;;;;;98.72;36.97;;;-3.30;99.90;;;;;;5082603;28;20393;-35
2022/12/17 23:36:29;;;;;;;91.35;36.67;;;-3.30;99.90;;;;;;5079321;28;20049;-35
2022/12/17 23:38:56;;;;;;;103.65;39.03;;;-3.20;99.90;;;;;;5071488;28;20055;-35
2022/12/17 23:41:25;;;;;;;96.32;36.60;;;-3.30;99.90;;;;;;5071664;28;20096;-36
2022/12/17 23:43:52;;;;;;;111.78;39.28;;;-3.30;99.90;;;;;;5051538;28;20122;-35
2022/12/17 23:46:19;;;;;;;105.68;40.20;;;-3.30;99.90;;;;;;5071714;28;20033;-35
2022/12/17 23:48:46;;;;;;;102.05;38.50;;;-3.30;99.90;;;;;;5067376;28;20032;-35
2022/12/17 23:51:17;;;;;;;101.32;41.20;;;-3.30;99.90;;;;;;5069048;28;20060;-35
2022/12/17 23:53:43;;;;;;;104.28;39.10;;;-3.30;99.90;;;;;;5070901;28;20085;-35
2022/12/17 23:56:12;;;;;;;114.30;40.58;;;-3.30;99.90;;;;;;5073249;28;20121;-35
2022/12/17 23:58:39;;;;;;;102.13;38.08;;;-3.30;99.90;;;;;;5072703;28;20127;-35
